createdAt,value
2018-04-29T00:00:29.068Z,84.48
2018-04-29T00:01:09.615Z,84.09
2018-04-29T00:01:50.127Z,84.58
2018-04-29T00:02:30.658Z,83.61
2018-04-29T00:03:11.168Z,83.23
2018-04-29T00:03:51.702Z,84.09
2018-04-29T00:04:32.213Z,83.71
2018-04-29T00:05:12.725Z,83.71
2018-04-29T00:05:53.244Z,83.81
2018-04-29T00:06:33.769Z,83.91
2018-04-29T00:07:14.287Z,84.28
2018-04-29T00:07:54.820Z,84.09
2018-04-29T00:08:35.330Z,84
2018-04-29T00:09:15.852Z,83.42
2018-04-29T00:09:56.373Z,83.91
2018-04-29T00:10:36.916Z,84.09
2018-04-29T00:11:17.433Z,83.71
2018-04-29T00:11:57.966Z,83.58
2018-04-29T00:12:38.482Z,83.71
2018-04-29T00:13:19.016Z,83.42
2018-04-29T00:13:59.551Z,83.81
2018-04-29T00:14:40.079Z,83.91
2018-04-29T00:15:20.592Z,84
2018-04-29T00:16:01.116Z,84.19
2018-04-29T00:16:41.629Z,84.15
2018-04-29T00:17:22.140Z,83.38
2018-04-29T00:18:02.672Z,83.48
2018-04-29T00:18:43.190Z,83.58
2018-04-29T00:19:23.710Z,83.48
2018-04-29T00:20:04.232Z,83.86
2018-04-29T00:20:44.756Z,84.25
2018-04-29T00:21:25.285Z,83.95
2018-04-29T00:22:05.807Z,84.72
2018-04-29T00:22:46.342Z,84.25
2018-04-29T00:23:26.902Z,83.76
2018-04-29T00:24:07.392Z,83.58
2018-04-29T00:24:47.913Z,83.48
2018-04-29T00:25:28.443Z,83.86
2018-04-29T00:26:08.962Z,83.67
2018-04-29T00:26:49.491Z,83.48
2018-04-29T00:27:30.017Z,83.58
2018-04-29T00:28:10.536Z,83.86
2018-04-29T00:28:51.062Z,83.38
2018-04-29T00:29:31.577Z,83.25
2018-04-29T00:30:12.127Z,84.25
2018-04-29T00:30:52.647Z,83.86
2018-04-29T00:31:33.185Z,83.58
2018-04-29T00:32:13.698Z,83.95
2018-04-29T00:32:54.325Z,84.01
2018-04-29T00:33:34.749Z,84.01
2018-04-29T00:34:15.266Z,83.76
2018-04-29T00:34:55.842Z,83.63
2018-04-29T00:35:36.372Z,83.25
2018-04-29T00:36:16.890Z,83.48
2018-04-29T00:36:57.416Z,83.48
2018-04-29T00:37:37.932Z,83.48
2018-04-29T00:38:18.445Z,83.48
2018-04-29T00:38:58.976Z,83.48
2018-04-29T00:39:39.490Z,83.76
2018-04-29T00:40:20.019Z,82.81
2018-04-29T00:41:00.531Z,83.63
2018-04-29T00:41:41.045Z,83.63
2018-04-29T00:42:21.564Z,83.25
2018-04-29T00:43:02.091Z,83.48
2018-04-29T00:43:42.609Z,83.09
2018-04-29T00:44:23.134Z,83.44
2018-04-29T00:45:03.656Z,83.25
2018-04-29T00:45:44.166Z,83.25
2018-04-29T00:46:24.689Z,83.15
2018-04-29T00:47:05.256Z,83.25
2018-04-29T00:47:45.768Z,83.34
2018-04-29T00:48:26.298Z,83.34
2018-04-29T00:49:06.820Z,83.63
2018-04-29T00:49:47.346Z,83.82
2018-04-29T00:50:27.872Z,84.3
2018-04-29T00:51:08.394Z,84.2
2018-04-29T00:51:48.908Z,83.63
2018-04-29T00:52:29.444Z,83.63
2018-04-29T00:53:10.025Z,83.72
2018-04-29T00:53:50.495Z,83.92
2018-04-29T00:54:31.036Z,83.72
2018-04-29T00:55:11.552Z,84.3
2018-04-29T00:55:52.075Z,84.01
2018-04-29T00:56:32.587Z,83.82
2018-04-29T00:57:13.097Z,83.82
2018-04-29T00:57:53.618Z,84.2
2018-04-29T00:58:34.132Z,84.58
2018-04-29T00:59:14.656Z,84.11
2018-04-29T00:59:55.190Z,84.88
2018-04-29T01:00:35.705Z,84.64
2018-04-29T01:01:16.218Z,85.02
2018-04-29T01:01:56.733Z,85.02
2018-04-29T01:02:37.255Z,85.12
2018-04-29T01:03:17.751Z,85.31
2018-04-29T01:03:58.287Z,85.21
2018-04-29T01:04:38.814Z,84.92
2018-04-29T01:05:19.334Z,85.12
2018-04-29T01:05:59.921Z,85.79
2018-04-29T01:06:40.370Z,84.74
2018-04-29T01:07:20.880Z,85.12
2018-04-29T01:08:01.398Z,84.68
2018-04-29T01:08:41.912Z,84.55
2018-04-29T01:09:22.440Z,85.31
2018-04-29T01:10:02.966Z,85.41
2018-04-29T01:10:43.491Z,85.12
2018-04-29T01:11:24.015Z,85.12
2018-04-29T01:12:04.540Z,84.97
2018-04-29T01:12:45.054Z,85.16
2018-04-29T01:13:25.566Z,84.92
2018-04-29T01:14:06.089Z,84.55
2018-04-29T01:14:46.602Z,84.78
2018-04-29T01:15:27.185Z,84.49
2018-04-29T01:16:07.678Z,84.55
2018-04-29T01:16:48.195Z,83.97
2018-04-29T01:17:28.697Z,84.74
2018-04-29T01:18:09.220Z,84.58
2018-04-29T01:18:49.750Z,84.74
2018-04-29T01:19:30.267Z,84.35
2018-04-29T01:20:10.791Z,84.68
2018-04-29T01:20:51.309Z,84.64
2018-04-29T01:21:31.830Z,84.74
2018-04-29T01:22:12.366Z,84.16
2018-04-29T01:22:52.877Z,84.06
2018-04-29T01:23:33.403Z,83.87
2018-04-29T01:24:13.928Z,84.16
2018-04-29T01:24:54.444Z,84.74
2018-04-29T01:25:34.969Z,84.68
2018-04-29T01:26:15.490Z,84.49
2018-04-29T01:26:56.015Z,84.55
2018-04-29T01:27:36.546Z,85.12
2018-04-29T01:28:17.072Z,84.83
2018-04-29T01:28:57.616Z,84.74
2018-04-29T01:29:38.142Z,84.55
2018-04-29T01:30:18.675Z,84.55
2018-04-29T01:30:59.196Z,84.45
2018-04-29T01:31:39.719Z,85.31
2018-04-29T01:32:20.234Z,85.31
2018-04-29T01:33:00.760Z,85.79
2018-04-29T01:33:41.270Z,85.79
2018-04-29T01:34:21.783Z,86.08
2018-04-29T01:35:02.309Z,85.69
2018-04-29T01:35:42.840Z,86.36
2018-04-29T01:36:23.368Z,85.88
2018-04-29T01:37:03.885Z,86.27
2018-04-29T01:37:44.409Z,86.08
2018-04-29T01:38:24.931Z,86.46
2018-04-29T01:39:05.434Z,86.27
2018-04-29T01:39:45.957Z,86.36
2018-04-29T01:40:26.477Z,86.17
2018-04-29T01:41:06.999Z,86.36
2018-04-29T01:41:47.536Z,86.55
2018-04-29T01:42:28.062Z,86.17
2018-04-29T01:43:08.575Z,86.55
2018-04-29T01:43:49.096Z,86.55
2018-04-29T01:44:29.612Z,86.65
2018-04-29T01:45:10.123Z,87.13
2018-04-29T01:45:50.644Z,86.74
2018-04-29T01:46:31.159Z,86.65
2018-04-29T01:47:11.678Z,86.65
2018-04-29T01:47:52.213Z,86.55
2018-04-29T01:48:32.728Z,86.27
2018-04-29T01:49:13.264Z,86.74
2018-04-29T01:49:53.766Z,86.9
2018-04-29T01:50:34.280Z,87.27
2018-04-29T01:51:14.789Z,87.37
2018-04-29T01:51:55.307Z,87.37
2018-04-29T01:52:35.827Z,87.56
2018-04-29T01:53:16.353Z,87.47
2018-04-29T01:53:56.879Z,87.27
2018-04-29T01:54:37.398Z,87.37
2018-04-29T01:55:17.914Z,87.51
2018-04-29T01:55:58.448Z,87.23
2018-04-29T01:56:38.959Z,86.74
2018-04-29T01:57:19.473Z,86.27
2018-04-29T01:57:59.989Z,86.65
2018-04-29T01:58:40.512Z,86.17
2018-04-29T01:59:21.019Z,86.55
2018-04-29T02:00:01.519Z,87.03
2018-04-29T02:00:42.039Z,86.74
2018-04-29T02:01:22.560Z,86.74
2018-04-29T02:02:03.079Z,86.84
2018-04-29T02:02:43.591Z,87.03
2018-04-29T02:03:24.111Z,87.27
2018-04-29T02:04:04.627Z,86.94
2018-04-29T02:04:45.148Z,86.94
2018-04-29T02:05:25.656Z,86.84
2018-04-29T02:06:06.182Z,87.03
2018-04-29T02:06:46.718Z,86.84
2018-04-29T02:07:27.251Z,86.55
2018-04-29T02:08:07.759Z,86.46
2018-04-29T02:08:48.349Z,86.46
2018-04-29T02:09:28.819Z,86.27
2018-04-29T02:10:09.323Z,86.84
2018-04-29T02:10:49.840Z,87.41
2018-04-29T02:11:30.363Z,87.47
2018-04-29T02:12:10.916Z,87.37
2018-04-29T02:12:51.425Z,87.37
2018-04-29T02:13:31.942Z,87.66
2018-04-29T02:14:12.455Z,87.85
2018-04-29T02:14:52.974Z,87.85
2018-04-29T02:15:33.498Z,87.56
2018-04-29T02:16:14.005Z,87.85
2018-04-29T02:16:54.531Z,87.66
2018-04-29T02:17:35.062Z,87.8
2018-04-29T02:18:15.574Z,87.76
2018-04-29T02:18:56.108Z,87.61
2018-04-29T02:19:36.637Z,87.37
2018-04-29T02:20:17.162Z,87.51
2018-04-29T02:20:57.674Z,87.76
2018-04-29T02:21:38.197Z,87.76
2018-04-29T02:22:18.729Z,87.85
2018-04-29T02:22:59.254Z,87.8
2018-04-29T02:23:39.775Z,87.51
2018-04-29T02:24:20.287Z,87.56
2018-04-29T02:25:00.805Z,87.56
2018-04-29T02:25:41.319Z,87.9
2018-04-29T02:26:21.844Z,87.76
2018-04-29T02:27:02.356Z,87.8
2018-04-29T02:27:42.871Z,87.61
2018-04-29T02:28:23.398Z,87.61
2018-04-29T02:29:03.926Z,88.09
2018-04-29T02:29:44.449Z,87.9
2018-04-29T02:30:24.971Z,87.99
2018-04-29T02:31:05.492Z,87.51
2018-04-29T02:31:46.021Z,88.18
2018-04-29T02:32:26.529Z,87.8
2018-04-29T02:33:07.085Z,87.99
2018-04-29T02:33:47.607Z,87.8
2018-04-29T02:34:28.118Z,87.51
2018-04-29T02:35:08.641Z,87.7
2018-04-29T02:35:49.153Z,87.61
2018-04-29T02:36:29.690Z,87.7
2018-04-29T02:37:10.210Z,87.23
2018-04-29T02:37:50.728Z,87.7
2018-04-29T02:38:31.246Z,86.94
2018-04-29T02:39:11.765Z,87.23
2018-04-29T02:39:52.298Z,87.51
2018-04-29T02:40:32.807Z,87.32
2018-04-29T02:41:13.314Z,87.61
2018-04-29T02:41:53.845Z,87.9
2018-04-29T02:42:34.362Z,87.9
2018-04-29T02:43:14.887Z,88.18
2018-04-29T02:43:55.404Z,88.09
2018-04-29T02:44:35.921Z,88.09
2018-04-29T02:45:16.439Z,88.37
2018-04-29T02:45:56.957Z,88.37
2018-04-29T02:46:37.459Z,88.18
2018-04-29T02:47:17.978Z,88.47
2018-04-29T02:47:58.495Z,88.76
2018-04-29T02:48:39.019Z,88.66
2018-04-29T02:49:19.533Z,88.56
2018-04-29T02:50:00.049Z,88.18
2018-04-29T02:50:40.561Z,88.18
2018-04-29T02:51:21.097Z,88.66
2018-04-29T02:52:01.606Z,88.18
2018-04-29T02:52:42.113Z,88.76
2018-04-29T02:53:22.631Z,88.85
2018-04-29T02:54:03.138Z,88.28
2018-04-29T02:54:43.667Z,88.18
2018-04-29T02:55:24.190Z,88.18
2018-04-29T02:56:04.714Z,88.47
2018-04-29T02:56:45.242Z,88.66
2018-04-29T02:57:25.748Z,88.47
2018-04-29T02:58:06.261Z,88.18
2018-04-29T02:58:46.773Z,87.99
2018-04-29T02:59:27.299Z,88.47
2018-04-29T03:00:07.819Z,87.9
2018-04-29T03:00:48.349Z,88.09
2018-04-29T03:01:28.868Z,88.76
2018-04-29T03:02:09.380Z,88.66
2018-04-29T03:02:49.909Z,88.66
2018-04-29T03:03:30.438Z,88.66
2018-04-29T03:04:10.946Z,89.33
2018-04-29T03:04:51.456Z,89.14
2018-04-29T03:05:31.973Z,89.04
2018-04-29T03:06:12.487Z,89.9
2018-04-29T03:06:52.999Z,89.62
2018-04-29T03:07:33.532Z,89.52
2018-04-29T03:08:14.055Z,89.52
2018-04-29T03:08:54.554Z,88.95
2018-04-29T03:09:35.064Z,89.04
2018-04-29T03:10:15.572Z,89.14
2018-04-29T03:10:56.100Z,89.14
2018-04-29T03:11:36.613Z,89.14
2018-04-29T03:12:17.159Z,89.14
2018-04-29T03:12:57.672Z,89.14
2018-04-29T03:13:38.198Z,89.04
2018-04-29T03:14:18.717Z,89.43
2018-04-29T03:14:59.235Z,89.14
2018-04-29T03:15:39.758Z,89.72
2018-04-29T03:16:20.300Z,89.52
2018-04-29T03:17:00.817Z,89.72
2018-04-29T03:17:41.349Z,89.43
2018-04-29T03:18:21.873Z,89.62
2018-04-29T03:19:02.393Z,89.62
2018-04-29T03:19:42.910Z,89.62
2018-04-29T03:20:23.429Z,89.81
2018-04-29T03:21:03.943Z,89.43
2018-04-29T03:21:44.463Z,89.72
2018-04-29T03:22:24.976Z,89.9
2018-04-29T03:23:05.498Z,89.33
2018-04-29T03:23:46.014Z,90.29
2018-04-29T03:24:26.539Z,90
2018-04-29T03:25:07.063Z,90.09
2018-04-29T03:25:47.573Z,90.05
2018-04-29T03:26:28.089Z,90.19
2018-04-29T03:27:08.629Z,90.53
2018-04-29T03:27:49.142Z,89.81
2018-04-29T03:28:29.674Z,90.05
2018-04-29T03:29:10.222Z,90.24
2018-04-29T03:29:50.737Z,90.63
2018-04-29T03:30:31.263Z,90.86
2018-04-29T03:31:11.788Z,90.29
2018-04-29T03:31:52.300Z,90.48
2018-04-29T03:32:32.812Z,90
2018-04-29T03:33:13.328Z,90.53
2018-04-29T03:33:53.846Z,90.77
2018-04-29T03:34:34.372Z,89.9
2018-04-29T03:35:14.898Z,90.48
2018-04-29T03:35:55.416Z,90.67
2018-04-29T03:36:35.943Z,90.48
2018-04-29T03:37:16.474Z,90.86
2018-04-29T03:37:56.998Z,90.09
2018-04-29T03:38:37.515Z,90.19
2018-04-29T03:39:18.035Z,90.48
2018-04-29T03:39:58.554Z,90.39
2018-04-29T03:40:39.083Z,90.39
2018-04-29T03:41:19.596Z,89.9
2018-04-29T03:42:00.113Z,89.62
2018-04-29T03:42:40.624Z,89.62
2018-04-29T03:43:21.152Z,89.9
2018-04-29T03:44:01.671Z,90.09
2018-04-29T03:44:42.176Z,90.39
2018-04-29T03:45:22.692Z,90.09
2018-04-29T03:46:03.210Z,90.29
2018-04-29T03:46:43.715Z,90.48
2018-04-29T03:47:24.254Z,90.39
2018-04-29T03:48:04.770Z,90.48
2018-04-29T03:48:45.272Z,90.48
2018-04-29T03:49:25.793Z,90.48
2018-04-29T03:50:06.307Z,90.48
2018-04-29T03:50:46.825Z,90.86
2018-04-29T03:51:27.349Z,90.48
2018-04-29T03:52:07.862Z,90.67
2018-04-29T03:52:48.384Z,90.48
2018-04-29T03:53:28.897Z,90.48
2018-04-29T03:54:09.505Z,90.58
2018-04-29T03:54:49.950Z,90.29
2018-04-29T03:55:30.545Z,90.53
2018-04-29T03:56:11.007Z,91.3
2018-04-29T03:56:51.521Z,91.11
2018-04-29T03:57:32.040Z,91.11
2018-04-29T03:58:12.559Z,91.11
2018-04-29T03:58:53.091Z,91.01
2018-04-29T03:59:33.598Z,90.77
2018-04-29T04:00:14.110Z,91.01
2018-04-29T04:00:54.661Z,90.77
2018-04-29T04:01:35.192Z,90.48
2018-04-29T04:02:15.766Z,90.58
2018-04-29T04:02:56.257Z,90.44
2018-04-29T04:03:36.783Z,90.53
2018-04-29T04:04:17.313Z,90.72
2018-04-29T04:04:57.816Z,91.39
2018-04-29T04:05:38.342Z,90.34
2018-04-29T04:06:18.855Z,90.67
2018-04-29T04:06:59.363Z,90.67
2018-04-29T04:07:39.882Z,90.67
2018-04-29T04:08:20.406Z,90.48
2018-04-29T04:09:00.922Z,89.9
2018-04-29T04:09:41.497Z,90.72
2018-04-29T04:10:21.968Z,90.53
2018-04-29T04:11:02.498Z,90.82
2018-04-29T04:11:43.009Z,90.91
2018-04-29T04:12:23.528Z,91.3
2018-04-29T04:13:04.058Z,91.11
2018-04-29T04:13:44.568Z,90.67
2018-04-29T04:14:25.091Z,90.63
2018-04-29T04:15:05.620Z,90.67
2018-04-29T04:15:46.137Z,91.11
2018-04-29T04:16:26.650Z,90.91
2018-04-29T04:17:07.166Z,90.82
2018-04-29T04:17:47.680Z,90.82
2018-04-29T04:18:28.196Z,91.2
2018-04-29T04:19:08.715Z,90.82
2018-04-29T04:19:49.227Z,91.11
2018-04-29T04:20:29.748Z,91.3
2018-04-29T04:21:10.268Z,91.01
2018-04-29T04:21:50.778Z,90.63
2018-04-29T04:22:31.306Z,90.77
2018-04-29T04:23:11.820Z,90.19
2018-04-29T04:23:52.347Z,90.53
2018-04-29T04:24:32.864Z,91.01
2018-04-29T04:25:13.394Z,91.11
2018-04-29T04:25:53.915Z,91.3
2018-04-29T04:26:34.441Z,91.2
2018-04-29T04:27:14.970Z,91.2
2018-04-29T04:27:55.477Z,91.49
2018-04-29T04:28:35.997Z,91.49
2018-04-29T04:29:16.513Z,91.2
2018-04-29T04:29:57.019Z,91.39
2018-04-29T04:30:37.549Z,91.11
2018-04-29T04:31:18.077Z,90.91
2018-04-29T04:31:58.581Z,91.39
2018-04-29T04:32:39.098Z,91.39
2018-04-29T04:33:19.618Z,91.39
2018-04-29T04:34:00.132Z,91.11
2018-04-29T04:34:40.654Z,91.2
2018-04-29T04:35:21.185Z,91.01
2018-04-29T04:36:01.701Z,90.82
2018-04-29T04:36:42.214Z,90.67
2018-04-29T04:37:22.733Z,90.29
2018-04-29T04:38:03.246Z,90.39
2018-04-29T04:38:43.761Z,90.09
2018-04-29T04:39:24.286Z,89.33
2018-04-29T04:40:04.798Z,89.81
2018-04-29T04:40:45.325Z,89.62
2018-04-29T04:41:25.844Z,89.52
2018-04-29T04:42:06.367Z,89.43
2018-04-29T04:42:46.884Z,89.72
2018-04-29T04:43:27.410Z,90.09
2018-04-29T04:44:07.932Z,89.62
2018-04-29T04:44:48.450Z,89.52
2018-04-29T04:45:28.968Z,89.72
2018-04-29T04:46:09.487Z,89.52
2018-04-29T04:46:50.133Z,89.43
2018-04-29T04:47:30.664Z,90
2018-04-29T04:48:11.182Z,89.62
2018-04-29T04:48:51.692Z,89.62
2018-04-29T04:49:32.206Z,88.85
2018-04-29T04:50:12.732Z,89.23
2018-04-29T04:50:53.253Z,88.76
2018-04-29T04:51:33.776Z,89.28
2018-04-29T04:52:14.296Z,88.61
2018-04-29T04:52:54.819Z,89.09
2018-04-29T04:53:35.340Z,88.56
2018-04-29T04:54:15.863Z,88.66
2018-04-29T04:54:56.397Z,88.56
2018-04-29T04:55:36.936Z,88.56
2018-04-29T04:56:17.460Z,88.51
2018-04-29T04:56:57.974Z,88.66
2018-04-29T04:57:38.500Z,88.61
2018-04-29T04:58:19.026Z,88.56
2018-04-29T04:58:59.539Z,88.51
2018-04-29T04:59:40.056Z,87.9
2018-04-29T05:00:20.584Z,87.94
2018-04-29T05:01:01.103Z,87.41
2018-04-29T05:01:41.645Z,87.65
2018-04-29T05:02:22.171Z,87.84
2018-04-29T05:03:02.686Z,87.74
2018-04-29T05:03:43.202Z,87.55
2018-04-29T05:04:23.733Z,87.84
2018-04-29T05:05:04.247Z,88.03
2018-04-29T05:05:44.783Z,87.84
2018-04-29T05:06:25.303Z,87.74
2018-04-29T05:07:05.843Z,87.37
2018-04-29T05:07:46.360Z,87.46
2018-04-29T05:08:26.877Z,87.17
2018-04-29T05:09:07.398Z,87.08
2018-04-29T05:09:47.920Z,87.27
2018-04-29T05:10:28.426Z,87.46
2018-04-29T05:11:08.935Z,86.88
2018-04-29T05:11:49.443Z,86.88
2018-04-29T05:12:29.965Z,86.88
2018-04-29T05:13:10.491Z,87.55
2018-04-29T05:13:51.011Z,86.88
2018-04-29T05:14:31.537Z,86.98
2018-04-29T05:15:12.064Z,87.27
2018-04-29T05:15:52.587Z,87.27
2018-04-29T05:16:33.093Z,87.27
2018-04-29T05:17:13.624Z,87.08
2018-04-29T05:17:54.137Z,87.08
2018-04-29T05:18:34.643Z,87.17
2018-04-29T05:19:15.177Z,87.46
2018-04-29T05:19:55.685Z,87.17
2018-04-29T05:20:36.207Z,87.08
2018-04-29T05:21:16.733Z,87.08
2018-04-29T05:21:57.248Z,87.08
2018-04-29T05:22:37.761Z,87.08
2018-04-29T05:23:18.289Z,87.17
2018-04-29T05:23:58.794Z,87.37
2018-04-29T05:24:39.321Z,87.37
2018-04-29T05:25:19.843Z,86.98
2018-04-29T05:26:00.353Z,86.98
2018-04-29T05:26:40.873Z,86.6
2018-04-29T05:27:21.407Z,86.88
2018-04-29T05:28:01.931Z,86.79
2018-04-29T05:28:42.448Z,86.88
2018-04-29T05:29:22.957Z,87.37
2018-04-29T05:30:03.480Z,87.55
2018-04-29T05:30:43.983Z,88.13
2018-04-29T05:31:24.515Z,87.46
2018-04-29T05:32:05.031Z,87.46
2018-04-29T05:32:45.547Z,87.37
2018-04-29T05:33:26.062Z,87.74
2018-04-29T05:34:06.582Z,87.94
2018-04-29T05:34:47.099Z,87.55
2018-04-29T05:35:27.659Z,87.84
2018-04-29T05:36:08.157Z,87.65
2018-04-29T05:36:48.678Z,87.94
2018-04-29T05:37:29.199Z,88.03
2018-04-29T05:38:09.724Z,87.65
2018-04-29T05:38:50.249Z,87.74
2018-04-29T05:39:30.756Z,87.55
2018-04-29T05:40:11.289Z,87.37
2018-04-29T05:40:51.809Z,87.37
2018-04-29T05:41:32.321Z,87.17
2018-04-29T05:42:12.832Z,86.98
2018-04-29T05:42:53.348Z,87.08
2018-04-29T05:43:33.872Z,87.17
2018-04-29T05:44:14.396Z,87.27
2018-04-29T05:44:54.914Z,86.79
2018-04-29T05:45:35.436Z,87.08
2018-04-29T05:46:15.953Z,87.17
2018-04-29T05:46:56.474Z,87.46
2018-04-29T05:47:37.021Z,87.37
2018-04-29T05:48:17.543Z,87.31
2018-04-29T05:48:58.055Z,86.64
2018-04-29T05:49:38.578Z,86.16
2018-04-29T05:50:19.088Z,85.88
2018-04-29T05:50:59.601Z,85.97
2018-04-29T05:51:40.124Z,86.64
2018-04-29T05:52:20.634Z,85.97
2018-04-29T05:53:01.153Z,86.25
2018-04-29T05:53:41.669Z,85.78
2018-04-29T05:54:22.191Z,85.3
2018-04-29T05:55:02.702Z,85.68
2018-04-29T05:55:43.222Z,86.07
2018-04-29T05:56:23.742Z,86.25
2018-04-29T05:57:04.257Z,85.88
2018-04-29T05:57:44.782Z,86.25
2018-04-29T05:58:25.295Z,86.25
2018-04-29T05:59:05.819Z,85.68
2018-04-29T05:59:46.340Z,86.54
2018-04-29T06:00:26.947Z,86.54
2018-04-29T06:01:07.376Z,85.88
2018-04-29T06:01:47.884Z,86.45
2018-04-29T06:02:28.408Z,86.93
2018-04-29T06:03:08.935Z,87.12
2018-04-29T06:03:49.458Z,87.02
2018-04-29T06:04:29.975Z,87.17
2018-04-29T06:05:10.512Z,87.12
2018-04-29T06:05:51.036Z,87.41
2018-04-29T06:06:31.598Z,87.31
2018-04-29T06:07:12.128Z,87.79
2018-04-29T06:07:52.608Z,87.41
2018-04-29T06:08:33.119Z,86.93
2018-04-29T06:09:13.633Z,86.83
2018-04-29T06:09:54.177Z,86.74
2018-04-29T06:10:35.087Z,86.74
2018-04-29T06:11:15.608Z,86.93
2018-04-29T06:11:56.135Z,87.02
2018-04-29T06:12:36.650Z,86.54
2018-04-29T06:13:17.175Z,86.64
2018-04-29T06:13:57.784Z,86.07
2018-04-29T06:14:38.219Z,86.64
2018-04-29T06:15:18.751Z,87.02
2018-04-29T06:15:59.266Z,86.11
2018-04-29T06:16:39.791Z,86.68
2018-04-29T06:17:20.315Z,86.21
2018-04-29T06:18:00.852Z,86.3
2018-04-29T06:18:41.382Z,85.72
2018-04-29T06:19:21.903Z,85.15
2018-04-29T06:20:02.425Z,85.15
2018-04-29T06:20:42.932Z,85.05
2018-04-29T06:21:23.441Z,85.1
2018-04-29T06:22:03.959Z,85.28
2018-04-29T06:22:44.504Z,85
2018-04-29T06:23:25.029Z,86.11
2018-04-29T06:24:05.538Z,85.19
2018-04-29T06:24:46.064Z,85.38
2018-04-29T06:25:26.605Z,85.1
2018-04-29T06:26:07.164Z,84.91
2018-04-29T06:26:47.633Z,85.28
2018-04-29T06:27:28.157Z,85
2018-04-29T06:28:08.689Z,85.1
2018-04-29T06:28:49.208Z,86.01
2018-04-29T06:29:29.729Z,86.11
2018-04-29T06:30:10.252Z,85.58
2018-04-29T06:30:50.773Z,85.28
2018-04-29T06:31:31.296Z,85.1
2018-04-29T06:32:11.801Z,85.28
2018-04-29T06:32:52.349Z,85.28
2018-04-29T06:33:32.870Z,84.71
2018-04-29T06:34:13.385Z,85
2018-04-29T06:34:53.914Z,84.52
2018-04-29T06:35:34.436Z,85.1
2018-04-29T06:36:14.938Z,85
2018-04-29T06:36:55.582Z,84.91
2018-04-29T06:37:36.120Z,84.71
2018-04-29T06:38:16.635Z,84.71
2018-04-29T06:38:57.164Z,84.14
2018-04-29T06:39:37.699Z,84.18
2018-04-29T06:40:18.353Z,84.08
2018-04-29T06:40:58.893Z,84.18
2018-04-29T06:41:39.417Z,83.8
2018-04-29T06:42:19.932Z,83.6
2018-04-29T06:43:00.452Z,83.16
2018-04-29T06:43:41.023Z,83.26
2018-04-29T06:44:21.631Z,82.49
2018-04-29T06:45:02.169Z,82.2
2018-04-29T06:45:42.705Z,82.2
2018-04-29T06:46:23.224Z,82.3
2018-04-29T06:47:03.744Z,82.3
2018-04-29T06:47:44.288Z,82.2
2018-04-29T06:48:24.800Z,82.2
2018-04-29T06:49:05.332Z,81.82
2018-04-29T06:49:45.838Z,82.3
2018-04-29T06:50:26.357Z,81.76
2018-04-29T06:51:06.856Z,82.15
2018-04-29T06:51:47.364Z,81.76
2018-04-29T06:52:27.875Z,81.67
2018-04-29T06:53:08.406Z,81.86
2018-04-29T06:53:48.915Z,81.86
2018-04-29T06:54:29.432Z,81.67
2018-04-29T06:55:09.950Z,80.99
2018-04-29T06:55:50.484Z,80.71
2018-04-29T06:56:31.007Z,80.17
2018-04-29T06:57:11.539Z,80.04
2018-04-29T06:57:52.130Z,80.51
2018-04-29T06:58:32.578Z,81.63
2018-04-29T06:59:13.105Z,81.53
2018-04-29T06:59:53.634Z,81.82
2018-04-29T07:00:34.152Z,81.67
2018-04-29T07:01:14.677Z,82.15
2018-04-29T07:01:55.190Z,81.86
2018-04-29T07:02:35.710Z,81.76
2018-04-29T07:03:16.213Z,81.76
2018-04-29T07:03:56.728Z,80.8
2018-04-29T07:04:37.257Z,81.57
2018-04-29T07:05:17.782Z,81.57
2018-04-29T07:05:58.302Z,82.01
2018-04-29T07:06:38.809Z,82.01
2018-04-29T07:07:19.344Z,82.2
2018-04-29T07:07:59.860Z,82.49
2018-04-29T07:08:40.379Z,82.78
2018-04-29T07:09:20.909Z,83.26
2018-04-29T07:10:01.444Z,83.45
2018-04-29T07:10:41.963Z,83.45
2018-04-29T07:11:22.486Z,83.93
2018-04-29T07:12:03.016Z,83.54
2018-04-29T07:12:43.544Z,83.26
2018-04-29T07:13:24.059Z,82.87
2018-04-29T07:14:04.659Z,83.45
2018-04-29T07:14:45.157Z,83.45
2018-04-29T07:15:25.636Z,83.84
2018-04-29T07:16:06.182Z,83.2
2018-04-29T07:16:46.702Z,82.24
2018-04-29T07:17:27.269Z,81.96
2018-04-29T07:18:07.837Z,81.96
2018-04-29T07:18:48.345Z,82.05
2018-04-29T07:19:28.866Z,82.59
2018-04-29T07:20:09.373Z,82.97
2018-04-29T07:20:49.889Z,82.97
2018-04-29T07:21:30.494Z,82.53
2018-04-29T07:22:11.009Z,81.76
2018-04-29T07:22:51.571Z,82.43
2018-04-29T07:23:32.054Z,83.01
2018-04-29T07:24:12.569Z,82.63
2018-04-29T07:24:53.270Z,81.86
2018-04-29T07:25:33.796Z,81.76
2018-04-29T07:26:14.303Z,81.42
2018-04-29T07:26:54.825Z,81.52
2018-04-29T07:27:35.351Z,81.71
2018-04-29T07:28:15.878Z,80.94
2018-04-29T07:28:56.405Z,80.94
2018-04-29T07:29:36.919Z,81.23
2018-04-29T07:30:17.452Z,80.84
2018-04-29T07:30:57.977Z,80.88
2018-04-29T07:31:38.486Z,80.02
2018-04-29T07:32:19.024Z,80.79
2018-04-29T07:32:59.543Z,80.98
2018-04-29T07:33:40.055Z,80.3
2018-04-29T07:34:20.568Z,80.4
2018-04-29T07:35:01.084Z,80.88
2018-04-29T07:35:41.597Z,81.23
2018-04-29T07:36:22.108Z,81.9
2018-04-29T07:37:02.654Z,81.71
2018-04-29T07:37:43.178Z,81.71
2018-04-29T07:38:23.702Z,82.09
2018-04-29T07:39:04.226Z,81.71
2018-04-29T07:39:44.826Z,82.19
2018-04-29T07:40:25.288Z,82.09
2018-04-29T07:41:05.790Z,82.76
2018-04-29T07:41:46.341Z,82.38
2018-04-29T07:42:26.884Z,82.29
2018-04-29T07:43:07.455Z,81.99
2018-04-29T07:43:47.986Z,82.09
2018-04-29T07:44:28.511Z,81.75
2018-04-29T07:45:09.040Z,82.09
2018-04-29T07:45:49.639Z,82.19
2018-04-29T07:46:30.158Z,82.76
2018-04-29T07:47:10.616Z,82.09
2018-04-29T07:47:51.138Z,82.67
2018-04-29T07:48:31.655Z,82.67
2018-04-29T07:49:12.185Z,83.2
2018-04-29T07:49:52.722Z,82.67
2018-04-29T07:50:33.253Z,83.34
2018-04-29T07:51:13.764Z,83.25
2018-04-29T07:51:54.355Z,83.15
2018-04-29T07:52:34.923Z,82.67
2018-04-29T07:53:15.436Z,82.76
2018-04-29T07:53:55.988Z,82.96
2018-04-29T07:54:36.519Z,82.76
2018-04-29T07:55:17.030Z,82.48
2018-04-29T07:55:57.550Z,82.34
2018-04-29T07:56:38.086Z,82.92
2018-04-29T07:57:18.610Z,82.63
2018-04-29T07:57:59.123Z,83.2
2018-04-29T07:58:39.659Z,82.82
2018-04-29T07:59:20.166Z,83.2
2018-04-29T08:00:00.701Z,82.63
2018-04-29T08:00:41.313Z,82.92
2018-04-29T08:01:21.755Z,83.49
2018-04-29T08:02:02.284Z,83.44
2018-04-29T08:02:42.792Z,83.69
2018-04-29T08:03:23.314Z,83.3
2018-04-29T08:04:03.853Z,82.67
2018-04-29T08:04:44.375Z,82.86
2018-04-29T08:05:24.895Z,82.96
2018-04-29T08:06:05.421Z,83.15
2018-04-29T08:06:45.973Z,83.44
2018-04-29T08:07:26.446Z,82.76
2018-04-29T08:08:07.012Z,82.48
2018-04-29T08:08:47.495Z,82.57
2018-04-29T08:09:28.087Z,82.48
2018-04-29T08:10:08.557Z,82.76
2018-04-29T08:10:49.000Z,82.57
2018-04-29T08:11:29.517Z,83.25
2018-04-29T08:12:10.049Z,82.67
2018-04-29T08:12:50.567Z,82.76
2018-04-29T08:13:31.092Z,82.67
2018-04-29T08:14:11.614Z,83.29
2018-04-29T08:14:52.157Z,82.14
2018-04-29T08:15:32.697Z,81.99
2018-04-29T08:16:13.203Z,82.42
2018-04-29T08:16:53.742Z,82.14
2018-04-29T08:17:34.265Z,82.29
2018-04-29T08:18:14.785Z,82.38
2018-04-29T08:18:55.304Z,81.9
2018-04-29T08:19:35.847Z,82.57
2018-04-29T08:20:16.370Z,82.19
2018-04-29T08:20:56.883Z,82.48
2018-04-29T08:21:37.394Z,83.34
2018-04-29T08:22:17.933Z,82.23
2018-04-29T08:22:58.425Z,82.52
2018-04-29T08:23:38.979Z,83.25
2018-04-29T08:24:19.457Z,82.71
2018-04-29T08:24:59.989Z,82.52
2018-04-29T08:25:40.510Z,82.71
2018-04-29T08:26:21.038Z,82.9
2018-04-29T08:27:01.564Z,82.32
2018-04-29T08:27:42.084Z,82.04
2018-04-29T08:28:22.606Z,82.04
2018-04-29T08:29:03.113Z,82.14
2018-04-29T08:29:43.651Z,82.32
2018-04-29T08:30:24.154Z,82.14
2018-04-29T08:31:04.675Z,82.04
2018-04-29T08:31:45.200Z,81.84
2018-04-29T08:32:25.725Z,81.75
2018-04-29T08:33:06.261Z,82.32
2018-04-29T08:33:46.802Z,82.32
2018-04-29T08:34:27.322Z,82.61
2018-04-29T08:35:07.834Z,82.04
2018-04-29T08:35:48.359Z,82.32
2018-04-29T08:36:28.875Z,82.71
2018-04-29T08:37:09.406Z,82.61
2018-04-29T08:37:49.920Z,82.71
2018-04-29T08:38:30.456Z,82.81
2018-04-29T08:39:10.979Z,82.71
2018-04-29T08:39:51.517Z,82.32
2018-04-29T08:40:32.027Z,82.56
2018-04-29T08:41:12.556Z,81.84
2018-04-29T08:41:53.118Z,81.98
2018-04-29T08:42:33.593Z,82.46
2018-04-29T08:43:14.131Z,82.17
2018-04-29T08:43:54.658Z,82.65